Time;durP1;ratioP1;P1;durP2;ratioP2;P2;SDS_P1;SDS_P2;PMS_P1;PMS_P2;Temp;Humidity;BMP_temperature;BMP_pressure;BME280_temperature;BME280_humidity;BME280_pressure;Samples;Min_cycle;Max_cycle;Signal;HPM_P1;HPM_P2
2021/08/31 00:01:47;;;;;;;36.50;16.77;;;21.60;60.40;;;;;;5080612;28;20447;-64
2021/08/31 00:04:13;;;;;;;31.90;17.05;;;21.50;60.30;;;;;;5078397;28;20060;-64
2021/08/31 00:06:39;;;;;;;34.25;16.15;;;21.60;60.30;;;;;;5078391;28;20073;-64
2021/08/31 00:09:05;;;;;;;28.98;16.05;;;21.60;60.30;;;;;;5078225;28;20122;-64
2021/08/31 00:11:31;;;;;;;27.75;15.02;;;21.60;60.20;;;;;;5078400;28;20078;-64
2021/08/31 00:13:58;;;;;;;23.25;14.88;;;21.60;60.20;;;;;;5078505;28;20032;-64
2021/08/31 00:16:24;;;;;;;24.27;14.23;;;21.60;60.10;;;;;;5066460;28;20025;-64
2021/08/31 00:18:49;;;;;;;23.02;13.65;;;21.70;60.10;;;;;;5078324;28;20107;-64
2021/08/31 00:21:15;;;;;;;23.73;12.63;;;21.70;60.00;;;;;;5074373;28;20059;-64
2021/08/31 00:23:41;;;;;;;23.70;13.23;;;21.70;60.00;;;;;;5064986;28;20032;-64
2021/08/31 00:26:07;;;;;;;22.02;11.93;;;21.70;60.00;;;;;;5078271;28;20024;-64
2021/08/31 00:28:32;;;;;;;21.48;12.23;;;21.70;60.00;;;;;;5077921;28;20082;-64
2021/08/31 00:30:58;;;;;;;22.02;12.30;;;21.70;59.90;;;;;;5078147;28;20434;-64
2021/08/31 00:33:24;;;;;;;21.27;12.45;;;21.70;59.90;;;;;;5077936;28;20024;-64
2021/08/31 00:35:50;;;;;;;19.65;11.50;;;21.70;59.90;;;;;;5077829;28;20025;-64
2021/08/31 00:38:15;;;;;;;19.27;12.20;;;21.80;59.90;;;;;;5077732;28;20027;-64
2021/08/31 00:40:41;;;;;;;19.95;12.00;;;21.80;59.90;;;;;;5078048;28;20027;-64
2021/08/31 00:43:07;;;;;;;18.80;11.10;;;21.80;59.80;;;;;;5077526;28;20088;-64
2021/08/31 00:45:36;;;;;;;19.65;10.80;;;21.80;59.70;;;;;;5076222;28;20124;-64
2021/08/31 00:48:03;;;;;;;17.95;11.20;;;21.80;59.70;;;;;;5077023;28;20032;-64
2021/08/31 00:50:29;;;;;;;17.27;10.43;;;21.80;59.70;;;;;;5077479;28;20059;-64
2021/08/31 00:52:56;;;;;;;18.30;10.98;;;21.80;59.60;;;;;;5077504;28;20028;-64
2021/08/31 00:55:22;;;;;;;19.35;11.48;;;21.90;59.60;;;;;;5077475;28;20013;-64
2021/08/31 00:57:48;;;;;;;18.20;10.27;;;21.90;59.60;;;;;;5077697;28;20084;-64
2021/08/31 01:00:14;;;;;;;19.33;10.90;;;21.90;59.50;;;;;;5077560;28;20080;-64
2021/08/31 01:02:43;;;;;;;18.58;11.45;;;21.90;59.50;;;;;;5077721;28;20487;-64
2021/08/31 01:05:10;;;;;;;17.83;10.15;;;21.90;59.50;;;;;;5077460;28;20048;-64
2021/08/31 01:07:36;;;;;;;17.13;10.98;;;21.90;59.40;;;;;;5077624;28;20032;-64
2021/08/31 01:10:04;;;;;;;18.50;10.60;;;22.00;59.50;;;;;;5075935;28;20446;-64
2021/08/31 01:12:30;;;;;;;20.05;11.15;;;22.00;59.40;;;;;;5074759;28;20050;-64
2021/08/31 01:14:56;;;;;;;18.02;10.27;;;22.00;59.40;;;;;;5077183;28;20089;-64
2021/08/31 01:17:31;;;;;;;15.70;10.30;;;22.00;59.30;;;;;;5075830;28;20079;-64
2021/08/31 01:20:02;;;;;;;19.35;10.15;;;22.00;59.30;;;;;;5064512;28;20020;-64
2021/08/31 01:22:27;;;;;;;18.05;9.88;;;22.00;59.20;;;;;;5077263;28;20082;-64
2021/08/31 01:24:58;;;;;;;20.90;10.65;;;22.10;59.20;;;;;;5076872;28;20028;-64
2021/08/31 01:27:25;;;;;;;15.70;9.45;;;22.10;59.20;;;;;;5077324;28;20052;-64
2021/08/31 01:29:52;;;;;;;18.33;10.07;;;22.10;59.20;;;;;;5080897;28;20474;-65
2021/08/31 01:32:18;;;;;;;18.17;10.10;;;22.10;59.10;;;;;;5080443;28;20571;-64
2021/08/31 01:34:43;;;;;;;19.98;10.18;;;22.20;59.00;;;;;;5081337;28;20052;-64
2021/08/31 01:37:12;;;;;;;17.08;9.77;;;22.20;59.00;;;;;;5080880;28;20094;-64
2021/08/31 01:39:39;;;;;;;19.45;9.68;;;22.20;58.90;;;;;;5080899;28;20035;-64
2021/08/31 01:42:06;;;;;;;17.35;9.25;;;22.20;58.90;;;;;;5079813;28;20043;-65
2021/08/31 01:44:32;;;;;;;16.08;9.65;;;22.30;58.80;;;;;;5080300;28;20033;-64
2021/08/31 01:46:58;;;;;;;17.00;9.38;;;22.30;58.80;;;;;;5076035;28;20479;-65
2021/08/31 01:49:24;;;;;;;18.17;10.10;;;22.40;58.80;;;;;;5080662;28;20028;-65
2021/08/31 01:51:49;;;;;;;18.35;10.15;;;22.40;58.70;;;;;;5080509;28;20107;-65
2021/08/31 01:54:16;;;;;;;16.73;10.20;;;22.40;58.70;;;;;;5080876;28;20107;-65
2021/08/31 01:56:42;;;;;;;17.80;9.35;;;22.40;58.70;;;;;;5080086;28;20457;-65
2021/08/31 01:59:08;;;;;;;16.25;9.50;;;22.50;58.60;;;;;;5080461;28;20030;-65
2021/08/31 02:01:34;;;;;;;17.65;9.50;;;22.50;58.50;;;;;;5080302;28;20479;-65
2021/08/31 02:04:01;;;;;;;16.00;8.73;;;22.50;58.50;;;;;;5080663;28;20020;-64
2021/08/31 02:06:27;;;;;;;16.98;9.10;;;22.50;58.40;;;;;;5080423;28;20486;-64
2021/08/31 02:08:52;;;;;;;14.68;8.10;;;22.60;59.00;;;;;;5080171;28;20044;-65
2021/08/31 02:11:18;;;;;;;12.60;8.60;;;22.60;58.30;;;;;;5080060;28;20055;-65
2021/08/31 02:13:44;;;;;;;14.25;8.98;;;22.60;58.20;;;;;;5079747;28;20029;-65
2021/08/31 02:16:10;;;;;;;13.60;8.77;;;22.70;58.20;;;;;;5080326;28;20020;-64
2021/08/31 02:18:40;;;;;;;16.38;10.02;;;22.70;58.20;;;;;;5080378;28;20024;-65
2021/08/31 02:21:07;;;;;;;13.55;8.70;;;22.70;58.20;;;;;;5080100;28;20089;-64
2021/08/31 02:23:33;;;;;;;15.55;9.68;;;22.70;58.10;;;;;;5079767;28;20096;-65
2021/08/31 02:25:59;;;;;;;14.90;8.50;;;22.70;58.00;;;;;;5080120;28;20905;-65
2021/08/31 02:28:25;;;;;;;15.52;9.20;;;22.70;57.90;;;;;;5079295;28;20025;-64
2021/08/31 02:30:51;;;;;;;14.70;9.35;;;22.80;58.00;;;;;;5078793;28;20022;-65
2021/08/31 02:33:17;;;;;;;15.13;8.70;;;22.80;57.90;;;;;;5079353;28;20027;-66
2021/08/31 02:35:43;;;;;;;14.25;8.50;;;22.80;57.90;;;;;;5079497;28;20059;-65
2021/08/31 02:38:09;;;;;;;14.27;8.80;;;22.80;57.80;;;;;;5079587;28;20029;-65
2021/08/31 02:40:35;;;;;;;15.07;8.98;;;22.80;57.70;;;;;;5079036;28;20048;-65
2021/08/31 02:43:00;;;;;;;14.85;8.15;;;22.90;57.80;;;;;;5079740;28;20028;-65
2021/08/31 02:45:26;;;;;;;14.25;8.80;;;22.90;57.70;;;;;;5077462;28;20039;-65
2021/08/31 02:47:52;;;;;;;13.85;8.13;;;22.90;57.70;;;;;;5077056;28;20095;-66
2021/08/31 02:50:18;;;;;;;14.15;8.38;;;22.90;57.60;;;;;;5076879;28;20029;-65
2021/08/31 02:52:44;;;;;;;12.38;8.05;;;22.90;57.60;;;;;;5079628;28;20020;-65
2021/08/31 02:55:13;;;;;;;18.05;9.30;;;22.90;57.60;;;;;;5079435;28;20031;-64
2021/08/31 02:57:39;;;;;;;14.70;8.25;;;23.00;57.60;;;;;;5078606;28;20090;-64
2021/08/31 03:00:06;;;;;;;13.15;8.07;;;23.00;57.60;;;;;;5079730;28;20024;-64
2021/08/31 03:02:32;;;;;;;13.55;8.40;;;23.00;57.50;;;;;;5079024;28;20402;-65
2021/08/31 03:04:58;;;;;;;13.93;8.57;;;23.00;57.50;;;;;;5079550;28;20032;-64
2021/08/31 03:07:24;;;;;;;13.15;8.20;;;23.00;57.50;;;;;;5079611;28;20068;-64
2021/08/31 03:09:50;;;;;;;12.18;7.82;;;23.00;57.40;;;;;;5079034;28;20444;-64
2021/08/31 03:12:16;;;;;;;14.10;7.97;;;23.00;57.40;;;;;;5078611;28;20033;-64
2021/08/31 03:14:42;;;;;;;13.73;8.32;;;23.00;57.40;;;;;;5079050;28;20498;-64
2021/08/31 03:17:08;;;;;;;16.73;8.98;;;23.00;57.40;;;;;;5072578;28;20025;-64
2021/08/31 03:19:34;;;;;;;14.10;8.30;;;23.00;57.40;;;;;;5079133;28;20021;-64
2021/08/31 03:22:02;;;;;;;14.38;8.40;;;23.00;57.30;;;;;;5078688;28;20035;-64
2021/08/31 03:24:29;;;;;;;13.27;8.30;;;23.00;57.30;;;;;;5078848;28;20025;-64
2021/08/31 03:26:56;;;;;;;12.65;7.60;;;23.00;57.40;;;;;;5078328;28;20025;-64
2021/08/31 03:29:21;;;;;;;13.35;9.00;;;23.00;57.30;;;;;;5078920;28;20032;-64
2021/08/31 03:31:48;;;;;;;15.15;8.38;;;23.00;57.30;;;;;;5078588;28;20055;-64
2021/08/31 03:34:14;;;;;;;12.98;8.57;;;23.00;57.30;;;;;;5078788;28;20059;-64
2021/08/31 03:36:40;;;;;;;13.75;8.82;;;23.00;57.30;;;;;;5078720;28;20100;-65
2021/08/31 03:39:06;;;;;;;12.20;7.97;;;23.00;57.30;;;;;;5078452;28;20103;-64
2021/08/31 03:41:32;;;;;;;11.70;7.95;;;23.00;57.20;;;;;;5078122;28;20083;-64
2021/08/31 03:43:58;;;;;;;12.38;8.63;;;23.00;57.20;;;;;;5078458;28;20021;-64
2021/08/31 03:46:24;;;;;;;12.77;8.20;;;23.00;57.20;;;;;;5072475;28;20509;-64
2021/08/31 03:48:50;;;;;;;11.35;8.02;;;23.00;57.30;;;;;;5078290;28;20406;-65
2021/08/31 03:51:15;;;;;;;13.68;8.93;;;23.00;57.20;;;;;;5077550;28;20107;-65
2021/08/31 03:53:41;;;;;;;12.68;8.95;;;23.00;57.20;;;;;;5078251;28;20547;-65
2021/08/31 03:56:07;;;;;;;13.27;8.60;;;23.00;57.80;;;;;;5078168;28;20028;-65
2021/08/31 03:58:33;;;;;;;12.48;8.27;;;23.00;57.20;;;;;;5077891;28;20560;-65
2021/08/31 04:00:59;;;;;;;12.30;8.35;;;23.00;57.20;;;;;;5078040;28;20029;-65
2021/08/31 04:03:25;;;;;;;13.38;8.13;;;23.00;57.20;;;;;;5077855;28;20029;-65
2021/08/31 04:05:50;;;;;;;11.93;7.53;;;23.00;57.20;;;;;;5077737;28;20526;-64
2021/08/31 04:08:16;;;;;;;12.60;7.57;;;23.00;57.20;;;;;;5077965;28;20031;-65
2021/08/31 04:10:42;;;;;;;12.25;8.20;;;23.00;57.20;;;;;;5078138;28;20024;-65
2021/08/31 04:13:10;;;;;;;12.75;8.55;;;23.00;57.20;;;;;;5077803;28;20039;-65
2021/08/31 04:15:36;;;;;;;11.93;7.95;;;23.00;57.20;;;;;;5077602;28;20024;-66
2021/08/31 04:18:02;;;;;;;13.52;8.30;;;23.00;57.20;;;;;;5076991;28;20028;-66
2021/08/31 04:20:28;;;;;;;13.32;8.48;;;23.00;57.30;;;;;;5078014;28;20027;-66
2021/08/31 04:22:54;;;;;;;12.63;7.72;;;23.00;57.90;;;;;;5077864;28;20084;-66
2021/08/31 04:25:20;;;;;;;12.27;7.60;;;23.00;57.30;;;;;;5077361;28;20025;-66
2021/08/31 04:27:46;;;;;;;11.23;7.80;;;23.00;57.30;;;;;;5077108;28;20040;-65
2021/08/31 04:30:12;;;;;;;13.32;8.32;;;22.90;57.20;;;;;;5077692;28;20104;-65
2021/08/31 04:32:39;;;;;;;13.02;8.38;;;22.90;57.20;;;;;;5077493;28;20071;-65
2021/08/31 04:35:05;;;;;;;12.80;7.28;;;22.90;57.20;;;;;;5077345;28;20025;-65
2021/08/31 04:37:31;;;;;;;11.45;6.97;;;22.90;57.30;;;;;;5077689;28;20044;-66
2021/08/31 04:39:59;;;;;;;13.40;7.28;;;22.90;57.30;;;;;;5077508;28;20036;-66
2021/08/31 04:42:25;;;;;;;11.75;7.50;;;22.90;57.30;;;;;;5077237;28;20028;-65
2021/08/31 04:44:51;;;;;;;11.30;7.25;;;22.90;57.90;;;;;;5077477;28;20028;-65
2021/08/31 04:47:17;;;;;;;13.02;7.95;;;22.90;57.30;;;;;;5072554;28;20055;-66
2021/08/31 04:49:43;;;;;;;10.95;7.25;;;22.90;57.30;;;;;;5077529;28;20033;-66
2021/08/31 04:52:10;;;;;;;12.02;7.68;;;22.90;57.30;;;;;;5077443;28;20063;-66
2021/08/31 04:54:35;;;;;;;11.70;7.57;;;22.90;57.90;;;;;;5077131;28;20039;-66
2021/08/31 04:57:01;;;;;;;12.00;7.88;;;22.90;57.30;;;;;;5076521;28;20028;-66
2021/08/31 04:59:27;;;;;;;11.10;7.60;;;22.90;57.30;;;;;;5077526;28;20444;-66
2021/08/31 05:01:53;;;;;;;10.80;7.30;;;22.90;57.30;;;;;;5076983;28;20089;-66
2021/08/31 05:04:19;;;;;;;11.07;7.57;;;22.80;57.30;;;;;;5077122;28;20021;-66
2021/08/31 05:06:45;;;;;;;10.75;7.50;;;22.90;57.40;;;;;;5077079;28;20101;-65
2021/08/31 05:09:11;;;;;;;10.50;7.38;;;22.90;57.40;;;;;;5077262;28;20032;-66
2021/08/31 05:11:37;;;;;;;11.60;7.22;;;22.80;57.30;;;;;;5076364;28;20572;-65
2021/08/31 05:14:04;;;;;;;12.20;7.60;;;22.80;57.30;;;;;;5077506;28;20076;-65
2021/08/31 05:16:30;;;;;;;12.13;7.68;;;22.80;57.30;;;;;;5069603;28;20029;-66
2021/08/31 05:18:56;;;;;;;12.50;8.38;;;22.80;57.40;;;;;;5076878;28;20042;-65
2021/08/31 05:21:22;;;;;;;12.38;7.95;;;22.80;57.40;;;;;;5064520;28;20024;-65
2021/08/31 05:23:48;;;;;;;12.60;7.13;;;22.80;57.40;;;;;;5076648;28;20024;-65
2021/08/31 05:26:14;;;;;;;12.40;7.45;;;22.80;57.40;;;;;;5076601;28;20040;-65
2021/08/31 05:28:40;;;;;;;11.85;7.30;;;22.80;57.40;;;;;;5076801;28;20032;-65
2021/08/31 05:31:06;;;;;;;10.95;7.22;;;22.70;57.40;;;;;;5076369;28;20036;-64
2021/08/31 05:33:31;;;;;;;10.75;7.47;;;22.80;57.40;;;;;;5077336;28;20024;-68
2021/08/31 05:35:57;;;;;;;12.32;7.95;;;22.80;57.40;;;;;;5076667;28;20031;-63
2021/08/31 05:38:23;;;;;;;12.93;7.90;;;22.70;57.50;;;;;;5076680;28;20025;-69
2021/08/31 05:40:49;;;;;;;13.50;7.97;;;22.70;57.50;;;;;;5076576;28;20155;-68
2021/08/31 05:43:15;;;;;;;10.88;7.25;;;22.70;57.60;;;;;;5076769;28;20025;-71
2021/08/31 05:45:40;;;;;;;11.98;7.13;;;22.70;57.70;;;;;;5073328;28;20029;-68
2021/08/31 05:48:06;;;;;;;12.75;7.20;;;22.70;57.80;;;;;;5076179;28;20032;-65
2021/08/31 05:50:32;;;;;;;12.40;7.68;;;22.70;57.80;;;;;;5076471;28;20068;-64
2021/08/31 05:52:58;;;;;;;12.63;7.30;;;22.70;57.80;;;;;;5076576;28;20029;-65
2021/08/31 05:55:23;;;;;;;12.50;7.07;;;22.70;57.90;;;;;;5076601;28;20111;-65
2021/08/31 05:57:49;;;;;;;12.40;7.45;;;22.80;57.90;;;;;;5075852;28;20021;-68
2021/08/31 06:00:15;;;;;;;13.10;7.28;;;22.70;58.60;;;;;;5076563;28;20478;-70
2021/08/31 06:02:44;;;;;;;11.80;7.85;;;22.80;58.00;;;;;;5076519;28;20552;-67
2021/08/31 06:05:12;;;;;;;11.10;7.22;;;22.80;58.00;;;;;;5076426;28;20033;-64
2021/08/31 06:07:42;;;;;;;11.18;7.32;;;22.80;58.00;;;;;;5076322;28;20032;-67
2021/08/31 06:10:08;;;;;;;11.75;7.75;;;22.80;58.10;;;;;;5076397;28;20499;-69
2021/08/31 06:12:34;;;;;;;13.57;7.65;;;22.80;58.10;;;;;;5076098;28;20033;-68
2021/08/31 06:15:00;;;;;;;11.02;7.18;;;22.80;58.10;;;;;;5077400;28;20055;-60
2021/08/31 06:17:27;;;;;;;12.55;7.43;;;22.80;58.20;;;;;;5073828;28;20027;-61
2021/08/31 06:19:53;;;;;;;10.93;7.05;;;22.80;58.20;;;;;;5079716;28;20032;-66
2021/08/31 06:22:19;;;;;;;11.40;7.43;;;22.80;58.30;;;;;;5080059;28;20020;-63
2021/08/31 06:24:48;;;;;;;11.68;7.22;;;22.80;58.30;;;;;;5080220;28;20572;-70
2021/08/31 06:27:14;;;;;;;13.05;7.57;;;22.80;58.30;;;;;;5079253;28;20027;-63
2021/08/31 06:29:40;;;;;;;13.60;7.13;;;22.80;58.30;;;;;;5080056;28;20056;-65
2021/08/31 06:32:06;;;;;;;11.98;7.22;;;22.80;58.30;;;;;;5078555;28;20024;-66
2021/08/31 06:34:32;;;;;;;12.82;7.22;;;22.80;58.40;;;;;;5079234;28;20020;-62
2021/08/31 06:36:58;;;;;;;19.80;8.88;;;22.80;58.50;;;;;;5079462;28;20436;-63
2021/08/31 06:39:24;;;;;;;13.52;8.30;;;22.80;58.70;;;;;;5079818;28;20025;-62
2021/08/31 06:41:49;;;;;;;19.52;8.15;;;22.80;58.90;;;;;;5079249;28;20423;-63
2021/08/31 06:44:15;;;;;;;14.10;6.90;;;22.80;58.90;;;;;;5079327;28;20037;-66
2021/08/31 06:46:41;;;;;;;17.08;7.90;;;22.80;58.90;;;;;;5074903;28;20107;-67
2021/08/31 06:49:07;;;;;;;21.02;7.95;;;22.80;59.00;;;;;;5079518;28;20032;-68
2021/08/31 06:51:33;;;;;;;17.77;7.53;;;22.80;59.20;;;;;;5079760;28;20053;-64
2021/08/31 06:54:00;;;;;;;13.88;7.05;;;22.80;59.20;;;;;;5079082;28;20048;-64
2021/08/31 06:56:26;;;;;;;17.52;7.60;;;22.80;59.30;;;;;;5078547;28;20075;-77
2021/08/31 06:58:52;;;;;;;13.95;7.43;;;22.80;59.30;;;;;;5079271;28;20032;-73
2021/08/31 07:01:18;;;;;;;21.35;9.65;;;22.90;59.30;;;;;;5079312;28;20025;-74
2021/08/31 07:03:43;;;;;;;18.95;11.32;;;22.80;59.00;;;;;;5079445;28;20073;-71
2021/08/31 07:06:09;;;;;;;22.65;12.23;;;22.90;58.90;;;;;;5079659;28;20016;-67
2021/08/31 07:08:35;;;;;;;18.45;11.98;;;22.90;58.70;;;;;;5078852;28;20032;-67
2021/08/31 07:11:01;;;;;;;16.20;11.02;;;22.90;58.60;;;;;;5077092;28;20032;-65
2021/08/31 07:13:27;;;;;;;13.98;9.40;;;22.80;58.40;;;;;;5078294;28;20652;-66
2021/08/31 07:15:52;;;;;;;16.23;9.15;;;22.80;58.30;;;;;;5078547;28;20016;-66
2021/08/31 07:18:18;;;;;;;17.25;8.65;;;22.70;58.10;;;;;;5078133;28;20056;-67
2021/08/31 07:20:44;;;;;;;14.40;7.68;;;22.70;58.00;;;;;;5078991;28;20021;-66
2021/08/31 07:23:13;;;;;;;16.85;7.72;;;22.70;57.80;;;;;;5079106;28;20028;-65
2021/08/31 07:25:40;;;;;;;12.60;6.90;;;22.60;57.70;;;;;;5078556;28;20024;-65
2021/08/31 07:28:06;;;;;;;11.48;6.95;;;22.60;57.70;;;;;;5078141;28;20024;-65
2021/08/31 07:30:32;;;;;;;12.60;6.10;;;22.60;57.70;;;;;;5078413;28;20147;-68
2021/08/31 07:32:58;;;;;;;10.45;5.88;;;22.50;57.60;;;;;;5078707;28;20032;-68
2021/08/31 07:35:24;;;;;;;12.30;6.25;;;22.50;57.60;;;;;;5078018;28;20028;-72
2021/08/31 07:37:49;;;;;;;10.27;5.75;;;22.50;57.60;;;;;;5078604;28;20021;-67
2021/08/31 07:40:15;;;;;;;10.98;5.10;;;22.50;57.50;;;;;;5078406;28;20021;-64
2021/08/31 07:42:41;;;;;;;11.88;5.35;;;22.50;57.50;;;;;;5078643;28;20112;-65
2021/08/31 07:45:09;;;;;;;11.98;5.38;;;22.50;57.40;;;;;;5078794;28;20060;-65
2021/08/31 07:47:35;;;;;;;9.25;4.57;;;22.40;57.30;;;;;;5075570;28;20108;-66
2021/08/31 07:50:04;;;;;;;10.93;4.60;;;22.50;57.10;;;;;;5078700;28;20042;-72
2021/08/31 07:52:30;;;;;;;20.00;9.43;;;22.50;57.30;;;;;;5074225;28;20033;-70
2021/08/31 07:54:56;;;;;;;16.63;8.50;;;22.50;57.20;;;;;;5078601;28;20533;-67
2021/08/31 07:57:22;;;;;;;18.35;8.20;;;22.50;57.30;;;;;;5064969;28;20024;-68
2021/08/31 07:59:47;;;;;;;18.27;8.57;;;22.60;57.50;;;;;;5078410;28;20031;-73
2021/08/31 08:02:14;;;;;;;18.65;10.77;;;22.60;57.40;;;;;;5077871;28;20512;-71
2021/08/31 08:04:40;;;;;;;19.67;11.23;;;22.70;57.30;;;;;;5077914;28;20062;-68
2021/08/31 08:07:06;;;;;;;20.48;10.57;;;22.80;57.40;;;;;;5078056;28;20036;-70
2021/08/31 08:09:31;;;;;;;24.73;10.00;;;22.80;57.40;;;;;;5078300;28;20035;-68
2021/08/31 08:11:57;;;;;;;18.75;8.80;;;22.80;57.30;;;;;;5077462;28;20052;-69
2021/08/31 08:14:23;;;;;;;15.55;7.97;;;22.90;57.30;;;;;;5078041;28;20058;-66
2021/08/31 08:16:49;;;;;;;13.63;8.20;;;22.90;57.30;;;;;;5070801;28;20024;-68
2021/08/31 08:19:14;;;;;;;13.93;6.38;;;23.00;57.30;;;;;;5075677;28;20911;-66
2021/08/31 08:21:40;;;;;;;11.60;6.35;;;23.00;57.40;;;;;;5068696;28;20390;-66
2021/08/31 08:24:08;;;;;;;10.98;5.80;;;23.10;57.30;;;;;;5071109;28;20032;-69
2021/08/31 08:26:36;;;;;;;10.32;5.38;;;23.20;57.40;;;;;;5071148;28;20040;-69
2021/08/31 08:29:03;;;;;;;13.60;5.30;;;23.30;57.60;;;;;;5077523;28;20032;-65
2021/08/31 08:31:32;;;;;;;12.93;5.43;;;23.40;57.30;;;;;;5077412;28;20035;-66
2021/08/31 08:33:58;;;;;;;14.13;5.65;;;23.50;57.60;;;;;;5077818;28;20032;-65
2021/08/31 08:36:24;;;;;;;12.95;5.53;;;23.60;57.70;;;;;;5077810;28;20024;-65
2021/08/31 08:38:50;;;;;;;14.27;5.65;;;23.60;57.50;;;;;;5075103;28;20043;-64
2021/08/31 08:41:16;;;;;;;14.45;7.15;;;23.80;57.50;;;;;;5077481;28;20025;-63
2021/08/31 08:43:42;;;;;;;22.13;12.68;;;23.90;57.40;;;;;;5077735;28;20579;-64
2021/08/31 08:46:08;;;;;;;29.23;15.45;;;23.90;57.20;;;;;;5077173;28;20418;-69
2021/08/31 08:48:34;;;;;;;24.67;13.45;;;24.10;57.10;;;;;;5071163;28;20096;-70
2021/08/31 08:51:04;;;;;;;25.42;13.10;;;24.10;57.50;;;;;;5062051;28;20028;-63
2021/08/31 08:53:33;;;;;;;19.42;11.43;;;24.20;57.70;;;;;;5076323;28;20028;-63
2021/08/31 08:56:00;;;;;;;20.42;10.98;;;24.40;57.90;;;;;;5077370;28;20386;-63
2021/08/31 08:58:27;;;;;;;21.55;10.50;;;24.50;58.10;;;;;;5072409;28;20048;-64
2021/08/31 09:01:02;;;;;;;18.15;10.60;;;24.60;58.40;;;;;;5077635;28;20047;-64
2021/08/31 09:03:31;;;;;;;16.65;9.52;;;24.70;58.50;;;;;;5077282;28;20078;-64
2021/08/31 09:06:13;;;;;;;15.60;9.43;;;24.80;58.60;;;;;;5075569;28;20025;-63
2021/08/31 09:08:42;;;;;;;;;;;25.00;58.80;;;;;;5071748;28;20387;-64
2021/08/31 09:11:23;;;;;;;19.50;10.20;;;25.10;58.90;;;;;;5077006;28;19955;-64
2021/08/31 09:13:50;;;;;;;16.70;9.10;;;25.20;58.90;;;;;;5077404;28;20031;-63
2021/08/31 09:16:28;;;;;;;17.15;9.10;;;25.40;59.10;;;;;;5077227;28;20035;-63
2021/08/31 09:18:56;;;;;;;17.27;9.00;;;25.50;59.20;;;;;;5077021;28;20047;-63
2021/08/31 09:21:24;;;;;;;16.80;8.68;;;25.60;59.30;;;;;;5076551;28;20047;-63
2021/08/31 09:23:51;;;;;;;16.73;8.73;;;25.80;59.40;;;;;;5071869;28;20081;-64
2021/08/31 09:26:20;;;;;;;13.00;7.75;;;25.90;59.40;;;;;;5076920;28;20031;-64
2021/08/31 09:28:47;;;;;;;15.65;8.05;;;25.90;59.30;;;;;;5077013;28;20025;-64
2021/08/31 09:31:15;;;;;;;14.27;7.90;;;26.00;59.20;;;;;;5076955;28;20429;-64
2021/08/31 09:33:46;;;;;;;14.10;7.43;;;26.00;59.10;;;;;;5077058;28;20021;-64
2021/08/31 09:36:22;;;;;;;12.38;7.03;;;26.00;58.80;;;;;;5077123;28;20012;-64
2021/08/31 09:39:01;;;;;;;11.55;7.57;;;26.00;58.70;;;;;;5071424;28;20060;-64
2021/08/31 09:41:29;;;;;;;12.60;6.93;;;26.00;58.60;;;;;;5076969;28;20849;-64
2021/08/31 09:43:57;;;;;;;13.77;7.63;;;25.90;58.50;;;;;;5071476;28;20055;-64
2021/08/31 09:46:22;;;;;;;14.20;7.38;;;25.90;58.20;;;;;;5072267;28;20054;-63
2021/08/31 09:48:48;;;;;;;13.80;6.72;;;25.90;58.10;;;;;;5077944;28;20559;-63
2021/08/31 09:51:15;;;;;;;11.13;7.13;;;25.90;57.90;;;;;;5080816;28;20032;-63
2021/08/31 09:53:42;;;;;;;12.23;7.00;;;25.80;57.80;;;;;;5080691;28;20071;-63
2021/08/31 09:56:12;;;;;;;11.90;7.65;;;25.80;57.80;;;;;;5081031;28;20040;-63
2021/08/31 09:58:40;;;;;;;13.55;7.00;;;25.80;57.80;;;;;;5080754;28;20374;-63
2021/08/31 10:01:06;;;;;;;10.63;6.68;;;25.90;58.00;;;;;;5080768;28;20028;-63
2021/08/31 10:03:33;;;;;;;11.23;6.85;;;25.90;57.90;;;;;;5080622;28;20024;-63
2021/08/31 10:06:01;;;;;;;11.82;6.03;;;25.90;57.90;;;;;;5080862;28;20023;-63
2021/08/31 10:08:32;;;;;;;11.45;6.50;;;26.00;58.00;;;;;;5080469;28;20028;-63
2021/08/31 10:11:00;;;;;;;10.38;6.10;;;26.10;58.20;;;;;;5080573;28;20025;-63
2021/08/31 10:13:27;;;;;;;11.02;6.88;;;26.20;58.30;;;;;;5079810;28;20049;-65
2021/08/31 10:15:56;;;;;;;10.80;6.72;;;26.20;58.20;;;;;;5066461;28;20028;-65
2021/08/31 10:18:27;;;;;;;13.57;6.20;;;26.20;58.10;;;;;;5075179;28;20038;-65
2021/08/31 10:20:58;;;;;;;12.52;6.53;;;26.20;58.10;;;;;;5076378;28;20021;-65
2021/08/31 10:23:33;;;;;;;12.00;6.43;;;26.20;58.10;;;;;;5080978;28;20107;-65
2021/08/31 10:26:25;;;;;;;10.93;6.00;;;26.20;58.10;;;;;;5079111;28;20051;-65
2021/08/31 10:28:52;;;;;;;;;;;26.10;57.80;;;;;;5074585;28;20059;-64
2021/08/31 10:31:32;;;;;;;10.95;5.80;;;26.10;57.90;;;;;;5079754;28;20683;-64
2021/08/31 10:33:58;;;;;;;12.05;6.00;;;26.20;58.00;;;;;;5076529;28;20433;-65
2021/08/31 10:36:44;;;;;;;11.13;5.88;;;26.20;58.00;;;;;;5079877;28;20506;-67
2021/08/31 10:39:09;;;;;;;15.93;9.50;;;26.20;57.80;;;;;;5079637;28;20029;-64
2021/08/31 10:41:43;;;;;;;29.92;13.40;;;26.20;57.80;;;;;;5079894;28;20035;-65
2021/08/31 10:44:31;;;;;;;22.08;13.27;;;26.10;57.50;;;;;;5067130;28;20028;-61
2021/08/31 10:46:57;;;;;;;21.65;13.38;;;26.10;57.60;;;;;;5072961;28;20115;-64
2021/08/31 10:49:23;;;;;;;20.48;13.18;;;26.30;57.60;;;;;;5079839;28;20058;-64
2021/08/31 10:52:09;;;;;;;19.70;13.35;;;26.40;57.60;;;;;;5079211;28;20039;-64
2021/08/31 10:54:46;;;;;;;21.85;13.65;;;26.50;57.90;;;;;;5079486;28;20044;-64
2021/08/31 10:57:34;;;;;;;23.90;14.32;;;26.70;58.10;;;;;;5079544;28;20027;-65
2021/08/31 11:00:21;;;;;;;20.35;12.65;;;26.80;58.50;;;;;;5069519;28;20052;-65
2021/08/31 11:02:48;;;;;;;21.42;12.70;;;26.70;58.30;;;;;;5068639;28;20491;-64
2021/08/31 11:05:24;;;;;;;19.90;12.32;;;26.80;58.30;;;;;;5079565;28;20024;-65
2021/08/31 11:07:54;;;;;;;21.45;11.88;;;26.80;58.30;;;;;;5079436;28;20406;-65
2021/08/31 11:10:25;;;;;;;18.73;12.13;;;26.80;58.30;;;;;;5079460;28;20552;-65
2021/08/31 11:12:53;;;;;;;18.75;11.63;;;26.70;58.30;;;;;;5079007;28;20053;-65
2021/08/31 11:15:23;;;;;;;19.38;11.35;;;26.70;58.10;;;;;;5077476;28;20379;-65
2021/08/31 11:17:50;;;;;;;14.68;10.02;;;26.60;57.90;;;;;;5075801;28;20056;-65
2021/08/31 11:20:25;;;;;;;17.75;10.98;;;26.50;57.70;;;;;;5079222;28;20036;-65
2021/08/31 11:23:14;;;;;;;19.90;10.80;;;26.40;57.50;;;;;;5079102;28;20032;-65
2021/08/31 11:25:48;;;;;;;15.55;9.55;;;26.40;57.60;;;;;;5079228;28;20031;-64
2021/08/31 11:28:20;;;;;;;14.98;9.77;;;26.40;57.60;;;;;;5079089;28;20039;-64
2021/08/31 11:30:57;;;;;;;17.25;9.93;;;26.30;57.40;;;;;;5079129;28;20130;-64
2021/08/31 11:33:39;;;;;;;14.77;9.07;;;26.30;57.40;;;;;;5079065;28;20043;-64
2021/08/31 11:36:08;;;;;;;14.80;8.38;;;26.20;57.40;;;;;;5066212;28;20022;-64
2021/08/31 11:38:38;;;;;;;16.60;9.02;;;26.20;57.50;;;;;;5078838;28;20112;-64
2021/08/31 11:41:25;;;;;;;16.30;8.82;;;26.20;57.50;;;;;;5079083;28;20028;-64
2021/08/31 11:43:57;;;;;;;15.95;9.02;;;26.10;57.50;;;;;;5078960;28;20056;-64
2021/08/31 11:46:28;;;;;;;12.52;9.07;;;26.10;57.50;;;;;;5074271;28;20059;-67
2021/08/31 11:49:17;;;;;;;12.68;7.55;;;26.10;57.50;;;;;;5078675;28;20028;-64
2021/08/31 11:52:11;;;;;;;14.32;8.55;;;26.00;57.40;;;;;;5078802;28;20077;-64
2021/08/31 11:54:43;;;;;;;12.43;7.78;;;26.00;57.30;;;;;;5078667;28;20021;-64
2021/08/31 11:57:10;;;;;;;14.40;8.25;;;26.00;57.20;;;;;;5078432;28;20080;-64
2021/08/31 11:59:49;;;;;;;15.65;8.20;;;26.00;57.10;;;;;;5078841;28;20138;-64
2021/08/31 12:02:22;;;;;;;12.73;7.60;;;25.90;57.00;;;;;;5066257;28;20056;-64
2021/08/31 12:04:57;;;;;;;11.60;7.13;;;25.90;57.00;;;;;;5078302;28;20433;-64
2021/08/31 12:07:49;;;;;;;14.57;7.78;;;25.90;56.90;;;;;;5078405;28;20081;-64
2021/08/31 12:10:25;;;;;;;12.95;7.38;;;25.80;56.70;;;;;;5065367;28;20053;-64
2021/08/31 12:12:51;;;;;;;11.80;7.03;;;25.80;56.60;;;;;;5076822;28;20041;-64
2021/08/31 12:15:25;;;;;;;11.60;6.88;;;25.80;56.60;;;;;;5076680;28;20515;-64
2021/08/31 12:18:02;;;;;;;12.70;7.30;;;25.80;56.50;;;;;;5074536;28;20048;-64
2021/08/31 12:20:29;;;;;;;13.43;6.85;;;25.70;56.40;;;;;;5078266;28;20032;-64
2021/08/31 12:23:03;;;;;;;12.20;6.63;;;25.70;56.30;;;;;;5077918;28;20029;-64
2021/08/31 12:25:46;;;;;;;10.10;6.18;;;25.70;56.30;;;;;;5078025;28;20024;-64
2021/08/31 12:28:12;;;;;;;12.60;7.13;;;25.70;56.30;;;;;;5066145;28;21259;-64
2021/08/31 12:30:43;;;;;;;9.63;6.28;;;25.60;56.20;;;;;;5077895;28;20055;-64
2021/08/31 12:33:21;;;;;;;11.60;6.57;;;25.60;56.20;;;;;;5078028;28;20040;-64
2021/08/31 12:35:47;;;;;;;9.35;6.22;;;25.60;56.10;;;;;;5077866;28;20500;-64
2021/08/31 12:38:14;;;;;;;10.45;6.05;;;25.50;56.00;;;;;;5077889;28;20025;-64
2021/08/31 12:41:10;;;;;;;10.02;5.93;;;25.50;55.90;;;;;;5077652;28;20556;-64